Latest Coastal Weather Observations for Walpole North

IDW60701

Issued at 1:33 am WST Thursday 3 September 2026 (issued every 10 minutes, with the page automatically refreshed every 10 minutes)

About coastal observations | Map of coastal stations | Coastal observations for WA | Marine services | Other Formats
Station Details ID: 009998 Name: NORTH WALPOLE Lat: -34.95 Lon: 116.72 Height: 73.0 m
Data from the previous 72 hours. | See also: Recent months at Walpole North
Date/Time
WST
Wind Sea
Height
m
Swell Vis
km
Cloud Weather Temp
°C
Press
MSL
hPa
Rain since
9am
mm
Dir  Spd
kts
Gust
kts
Height
m
Period
s
Dir
03/01:30am W 3 5 - - - - - - - 10.4 1019.5 0.6
03/01:00am CALM 0 0 - - - - - - - 10.4 1019.8 0.6
03/12:30am CALM 0 0 - - - - - - - 10.7 1019.9 0.6
03/12:00am CALM 0 0 - - - - - - - 10.8 1020.1 0.6
 
Date/Time
WST
Wind Sea
Height
m
Swell Vis
km
Cloud Weather Temp
°C
Press
MSL
hPa
Rain since
9am
mm
Dir  Spd
kts
Gust
kts
Height
m
Period
s
Dir
02/11:30pm CALM 0 0 - - - - - - - 11.2 1020.3 0.6
02/11:00pm CALM 0 0 - - - - - - - 11.2 1020.7 0.6
02/10:30pm W 2 4 - - - - - - - 11.4 1021.2 0.6
02/10:00pm CALM 0 0 - - - - - - - 11.5 1021.2 0.6
02/09:30pm CALM 0 0 - - - - - - - 11.6 1021.3 0.6
02/09:00pm SSW 1 5 - - - - - - - 11.7 1021.3 0.4
02/08:30pm SSW 2 5 - - - - - - - 12.1 1021.4 0.4
02/08:00pm SW 2 8 - - - - - - - 12.1 1021.2 0.4
02/07:30pm WSW 3 3 - - - - - - - 12.3 1020.9 0.4
02/07:00pm CALM 0 3 - - - - - - - 12.5 1020.7 0.4
02/06:30pm SW 4 7 - - - - - - - 13.0 1020.2 0.4
02/06:00pm SSW 3 4 - - - - - - - 13.0 1019.8 0.4
02/05:30pm SSW 4 7 - - - - - - - 13.6 1019.5 0.4
02/05:00pm SSW 6 9 - - - - - - - 14.5 1019.4 0.4
02/04:30pm SSW 6 10 - - - - - - - 15.0 1019.2 0.4
02/04:00pm SW 6 10 - - - - - - - 15.3 1019.1 0.4
02/03:30pm WSW 7 10 - - - - - - - 15.1 1019.0 0.4
02/03:00pm SW 6 12 - - - - - - Recent precip. 16.4 1018.9 0.4
02/02:30pm SW 9 17 - - - - - - - 15.9 1018.7 0.2
02/02:00pm WSW 7 15 - - - - - - - 16.3 1018.7 0.2
02/01:30pm WSW 9 19 - - - - - - - 15.7 1018.7 0.2
02/01:00pm SW 7 15 - - - - - - - 15.8 1018.8 0.2
02/12:30pm WSW 10 21 - - - - - - - 16.1 1018.9 0.2
02/12:00pm WSW 10 19 - - - - - - - 15.4 1019.1 0.2
02/11:30am SW 8 16 - - - - - - - 15.0 1019.2 0.2
02/11:00am WSW 6 11 - - - - - - - 14.3 1019.2 0.2
02/10:30am SW 8 17 - - - - - - - 13.4 1019.2 0.2
02/10:00am WSW 7 13 - - - - - - - 13.9 1019.2 0.0
02/09:30am WNW 7 11 - - - - - - - 13.6 1019.0 0.0
02/09:00am WNW 9 14 - - - - - - - 13.4 1018.8 1.6
02/08:30am WNW 10 15 - - - - - - - 12.6 1018.6 1.6
02/08:00am WNW 10 13 - - - - - - - 12.1 1018.7 1.6
02/07:30am NW 12 16 - - - - - - - 11.8 1018.2 1.6
02/07:00am NW 10 17 - - - - - - - 11.6 1018.2 1.6
02/06:30am WNW 9 14 - - - - - - - 11.4 1018.2 1.6
02/06:00am NW 13 21 - - - - - - - 11.3 1018.1 1.6
02/05:30am NW 13 18 - - - - - - - 11.3 1018.1 1.6
02/05:00am WNW 11 15 - - - - - - - 11.1 1018.1 1.6
02/04:30am NW 11 15 - - - - - - - 11.1 1018.1 1.6
02/04:00am NW 11 16 - - - - - - - 11.0 1018.1 1.4
02/03:30am NW 12 16 - - - - - - - 11.0 1018.4 1.4
02/03:00am NW 11 16 - - - - - - - 10.8 1018.5 1.4
02/02:30am NW 12 17 - - - - - - - 10.9 1018.9 1.4
02/02:00am NW 12 18 - - - - - - - 11.3 1019.2 1.4
02/01:30am NW 11 18 - - - - - - - 11.5 1019.3 1.4
02/01:00am NW 11 18 - - - - - - - 12.1 1019.3 1.4
02/12:30am NW 11 16 - - - - - - - 12.1 1019.5 1.4
02/12:00am NW 11 15 - - - - - - - 12.2 1019.7 1.4
 
Date/Time
WST
Wind Sea
Height
m
Swell Vis
km
Cloud Weather Temp
°C
Press
MSL
hPa
Rain since
9am
mm
Dir  Spd
kts
Gust
kts
Height
m
Period
s
Dir
01/11:30pm NW 11 15 - - - - - - - 12.3 1020.0 1.4
01/11:00pm NW 11 18 - - - - - - - 12.4 1020.3 1.4
01/10:30pm NW 11 16 - - - - - - - 12.4 1020.6 1.4
01/10:00pm NW 10 13 - - - - - - - 12.4 1020.9 1.4
01/09:30pm NW 10 15 - - - - - - - 12.6 1021.1 1.4
01/09:00pm NW 11 17 - - - - - - - 12.7 1021.3 1.4
01/08:30pm NW 10 15 - - - - - - - 12.7 1021.5 1.4
01/08:00pm NW 9 15 - - - - - - - 12.6 1021.5 1.4
01/07:30pm NW 10 15 - - - - - - - 12.9 1021.5 1.4
01/07:00pm NW 11 15 - - - - - - - 13.0 1021.7 1.4
01/06:30pm NW 10 14 - - - - - - - 12.9 1021.7 1.4
01/06:00pm NW 9 13 - - - - - - - 13.0 1021.6 1.4
01/05:30pm WNW 9 14 - - - - - - - 13.1 1021.7 1.4
01/05:00pm WNW 10 14 - - - - - - - 14.3 1021.6 1.4
01/04:30pm WNW 9 16 - - - - - - - 14.0 1021.6 1.2
01/04:00pm WNW 9 14 - - - - - - - 14.0 1021.7 1.2
01/03:30pm WNW 9 15 - - - - - - - 14.2 1021.8 1.2
01/03:00pm W 10 17 - - - - - - Recent precip. 13.3 1021.9 1.2
01/02:30pm W 10 17 - - - - - - - 14.9 1021.5 1.2
01/02:00pm WNW 12 19 - - - - - - - 15.3 1021.7 1.0
01/01:30pm W 9 16 - - - - - - - 15.2 1022.0 1.0
01/01:00pm W 10 17 - - - - - - - 14.9 1022.3 1.0
01/12:30pm WNW 8 13 - - - - - - - 14.8 1022.4 0.8
01/12:00pm W 9 14 - - - - - - Recent precip. 14.7 1022.5 0.6
01/11:30am W 9 13 - - - - - - - 14.6 1022.8 0.6
01/11:00am W 9 14 - - - - - - - 15.0 1022.9 0.4
01/10:30am WNW 6 11 - - - - - - - 14.8 1023.0 0.4
01/10:00am WNW 8 11 - - - - - - - 13.9 1023.1 0.2
01/09:30am W 3 4 - - - - - - - 12.2 1023.2 0.0
01/09:00am WNW 4 7 - - - - - - Recent precip. 11.6 1023.3 9.2
01/08:30am NW 7 12 - - - - - - - 11.5 1023.2 9.2
01/08:00am NW 2 5 - - - - - - - 9.9 1023.3 9.0
01/07:30am NW 5 6 - - - - - - - 9.9 1022.9 8.8
01/07:00am NW 5 5 - - - - - - - 8.4 1022.7 8.8
01/06:30am NW 5 7 - - - - - - - 8.4 1022.4 8.6
01/06:00am NW 6 8 - - - - - - Rain 8.2 1022.3 8.6
01/05:30am WNW 3 5 - - - - - - - 9.2 1022.1 8.4
01/05:00am NNW 5 8 - - - - - - - 8.7 1021.9 8.2
01/04:30am W 5 7 - - - - - - - 8.7 1021.7 8.2
01/04:00am NW 4 7 - - - - - - - 8.7 1021.6 8.0
01/03:30am NW 5 7 - - - - - - - 8.8 1021.5 7.8
01/03:00am NW 4 5 - - - - - - Recent precip. 9.1 1021.5 7.6
01/02:30am NW 1 6 - - - - - - - 8.9 1021.7 7.4
01/02:00am NW 3 4 - - - - - - - 8.9 1021.7 7.2
01/01:30am WSW 3 4 - - - - - - - 9.3 1021.6 7.0
01/01:00am WSW 4 7 - - - - - - - 9.4 1021.7 6.8
01/12:30am WNW 7 11 - - - - - - - 9.5 1021.8 6.6
01/12:00am W 3 3 - - - - - - Rain 8.9 1021.7 6.4
 
Date/Time
WST
Wind Sea
Height
m
Swell Vis
km
Cloud Weather Temp
°C
Press
MSL
hPa
Rain since
9am
mm
Dir  Spd
kts
Gust
kts
Height
m
Period
s
Dir
31/11:30pm WSW 3 4 - - - - - - - 8.9 1021.9 6.0
31/11:00pm W 4 6 - - - - - - - 9.4 1021.8 5.8
31/10:30pm W 3 7 - - - - - - - 9.8 1021.9 5.6
31/10:00pm W 4 7 - - - - - - - 10.0 1021.8 5.4
31/09:30pm WNW 6 8 - - - - - - - 10.1 1021.6 5.0
31/09:00pm NW 1 4 - - - - - - Rain 10.2 1021.2 4.8
31/08:30pm WNW 5 7 - - - - - - - 10.1 1021.2 4.4
31/08:00pm WNW 6 8 - - - - - - - 9.9 1021.0 4.0
31/07:30pm WNW 5 7 - - - - - - - 9.9 1020.6 3.6
31/07:00pm WNW 6 8 - - - - - - - 9.9 1020.3 3.2
31/06:30pm WSW 7 13 - - - - - - - 10.0 1020.1 2.8
31/06:00pm WSW 8 12 - - - - - - Recent precip. 10.2 1019.7 2.6
31/05:30pm SW 7 13 - - - - - - - 11.2 1019.1 2.4
31/05:00pm SSW 7 13 - - - - - - - 11.3 1018.5 2.2
31/04:30pm SSW 8 15 - - - - - - - 11.3 1017.9 1.8
31/04:00pm SSW 13 23 - - - - - - - 11.9 1017.1 1.2
31/03:30pm SSW 9 16 - - - - - - - 13.4 1016.5 0.8
31/03:00pm WSW 13 21 - - - - - - Rain 14.2 1015.7 0.6
31/02:50pm W 13 23 - - - - - - - 15.3 1015.4 0.4
31/02:36pm W 17 29 - - - - - - - 16.0 1015.0 0.4
31/02:30pm W 17 34 - - - - - - - 16.9 1015.0 0.4
31/02:26pm W 15 34 - - - - - - - 18.1 1014.9 0.4
31/02:20pm W 13 21 - - - - - - - 18.7 1014.3 0.4
31/02:00pm W 15 25 - - - - - - - 19.3 1014.0 0.4
31/01:54pm W 14 20 - - - - - - - 19.3 1014.0 0.4
31/01:30pm WNW 16 25 - - - - - - - 19.5 1013.9 0.4
31/01:00pm WNW 16 27 - - - - - - - 19.3 1014.0 0.4
31/12:57pm WNW 16 27 - - - - - - - 19.2 1013.9 0.4
31/12:42pm WNW 18 26 - - - - - - - 18.9 1013.9 0.4
31/12:30pm NW 18 28 - - - - - - - 19.0 1014.0 0.4
31/12:21pm WNW 15 26 - - - - - - - 18.6 1014.0 0.4
31/12:02pm WNW 15 22 - - - - - - - 17.8 1014.5 0.4
31/12:00pm WNW 15 23 - - - - - - - 17.7 1014.5 0.2
31/11:42am WNW 15 25 - - - - - - - 17.5 1014.8 0.2
31/11:30am WNW 13 22 - - - - - - - 18.2 1014.7 0.2
31/11:00am WNW 13 21 - - - - - - - 18.2 1014.9 0.2
31/10:30am WNW 10 17 - - - - - - - 16.9 1015.2 0.0
31/10:00am WNW 12 21 - - - - - - - 15.6 1015.4 0.0
31/09:30am WNW 10 14 - - - - - - - 17.7 1015.1 0.0
31/09:00am NW 9 15 - - - - - - - 17.6 1015.3 0.0
31/08:30am NW 9 12 - - - - - - - 16.5 1015.4 0.0
31/08:00am NW 11 16 - - - - - - - 15.7 1015.6 0.0
31/07:30am NW 11 15 - - - - - - - 15.0 1015.3 0.0
31/07:00am NW 11 16 - - - - - - - 14.8 1015.1 0.0
31/06:30am NW 10 14 - - - - - - - 14.5 1015.2 0.0
31/06:00am NW 10 15 - - - - - - - 14.6 1015.3 0.0
31/05:30am NW 10 13 - - - - - - - 14.6 1015.2 0.0
31/05:00am NW 11 15 - - - - - - - 14.6 1015.2 0.0
31/04:30am NW 10 15 - - - - - - - 14.7 1015.3 0.0
31/04:00am WNW 9 11 - - - - - - - 14.4 1015.5 0.0
31/03:30am WNW 8 11 - - - - - - - 14.4 1015.6 0.0
31/03:00am WNW 5 7 - - - - - - - 14.5 1015.5 0.0
31/02:30am NW 5 7 - - - - - - - 14.6 1015.6 0.0
31/02:00am WNW 6 8 - - - - - - - 14.9 1015.9 0.0

Other formats

Comma delimited format used in spreadsheet applications
http://www.bom.gov.au/fwo/IDW60701/IDW60701.95647.axf

JavaScript Object Notation format (JSON) in row-major order
http://www.bom.gov.au/fwo/IDW60701/IDW60701.95647.json

Data quality

Most of these data are generated automatically and are frequently updated. Quality checks on data are not normally performed. It is possible for incorrect values to appear. Refer to information at About Latest Weather Observations and please check the disclaimer before using these data.